Flight Track Log - Related Links

Times and Time Zones

All times are in EST time to prevent confusion due to time zone crossing. See the SWA1366 flight status page for this flight to view local times or setup timezone preferences in your user account.

Time Position Orientation Groundspeed Altitude Reporting Facility
EST Latitude Longitude Course Direction KTS MPH feet Rate Location/Type
Sun 10:16:54 AM 28.4333 -81.3000 24° Northeast 149 171 600  Level Orlando TRACON
Sun 10:17:48 AM 28.4667 -81.2833 24° Northeast 175 201 2,400 2,158 Climbing Orlando TRACON
Sun 10:18:48 AM 28.5333 -81.2500 24° Northeast 228 262 4,700 2,400 Climbing Orlando TRACON
Sun 10:19:48 AM 28.6000 -81.2333 12° North 282 325 7,200 2,640 Climbing Orlando TRACON
Sun 10:21:43 AM 28.7556 -81.2894 342° North 315 362 12,400 3,051 Climbing Jacksonville Center
Sun 10:22:43 AM 28.8583 -81.3208 345° North 348 400 16,100 3,300 Climbing Jacksonville Center
Sun 10:23:43 AM 28.9608 -81.3500 346° North 370 426 19,000 2,727 Climbing Jacksonville Center
Sun 10:24:44 AM 29.0675 -81.3792 347° North 382 440 21,600 2,000 Climbing Jacksonville Center
Sun 10:25:43 AM 29.1786 -81.4014 350° North 400 460 23,000 1,664 Climbing Jacksonville Center
Sun 10:26:43 AM 29.2956 -81.4067 358° North 410 472 24,900 2,050 Climbing Jacksonville Center
Sun 10:27:43 AM 29.4083 -81.4194 354° North 415 478 27,100 2,050 Climbing Jacksonville Center
Sun 10:28:43 AM 29.5128 -81.4322 354° North 415 478 29,000 2,250 Climbing Jacksonville Center
Sun 10:29:43 AM 29.6278 -81.4375 358° North 410 472 31,600 2,450 Climbing Jacksonville Center
Sun 10:30:43 AM 29.7406 -81.4383 360° North 405 466 33,900 2,250 Climbing Jacksonville Center
Sun 10:31:43 AM 29.8511 -81.4389 360° North 405 466 36,100 1,950 Climbing Jacksonville Center
Sun 10:32:43 AM 29.9533 -81.4375 North 387 445 37,800 1,450 Climbing Jacksonville Center
Sun 10:33:43 AM 30.0558 -81.4383 360° North 375 432 39,000 600 Climbing Jacksonville Center
Sun 10:34:43 AM 30.1558 -81.4367 North 362 417 39,000  Level Jacksonville Center
Sun 10:35:43 AM 30.2603 -81.4353 North 362 417 39,000  Level Jacksonville Center
Sun 10:36:43 AM 30.3625 -81.4336 North 362 417 39,000  Level Jacksonville Center
Sun 10:37:43 AM 30.4669 -81.4369 358° North 362 417 39,000  Level Jacksonville Center
Sun 10:38:43 AM 30.5672 -81.4378 360° North 362 417 39,000  Level Jacksonville Center
Sun 10:39:43 AM 30.6694 -81.4361 North 362 417 39,000  Level Jacksonville Center
Sun 10:40:43 AM 30.7739 -81.4369 360° North 362 417 39,000  Level Jacksonville Center
Sun 10:41:43 AM 30.8719 -81.4381 359° North 362 417 39,000  Level Jacksonville Center
Sun 10:42:43 AM 30.9722 -81.4364 North 362 417 39,000  Level Jacksonville Center
Sun 10:43:43 AM 31.0744 -81.4372 360° North 362 417 39,000  Level Jacksonville Center
Sun 10:44:43 AM 31.1853 -81.4381 360° North 362 417 39,000  Level Jacksonville Center
Sun 10:45:43 AM 31.2875 -81.4267 North 355 409 39,000  Level Jacksonville Center
Sun 10:46:43 AM 31.3872 -81.4008 12° North 371 427 39,000  Level Jacksonville Center
Sun 10:47:43 AM 31.4808 -81.3675 17° North 371 427 39,000  Level Jacksonville Center
Sun 10:48:43 AM 31.5842 -81.2856 34° Northeast 395 455 39,000  Level Jacksonville Center
Sun 10:49:43 AM 31.6814 -81.2081 34° Northeast 414 476 39,000  Level Jacksonville Center
Sun 10:50:43 AM 31.7639 -81.1381 36° Northeast 420 483 39,000  Level Jacksonville Center
Sun 10:51:43 AM 31.8714 -81.0506 35° Northeast 420 483 39,000  Level Jacksonville Center
Sun 10:52:43 AM 31.9578 -80.9778 36° Northeast 420 483 39,000  Level Jacksonville Center
Sun 10:53:43 AM 32.0672 -80.8922 34° Northeast 420 483 39,000  Level Jacksonville Center
Sun 10:54:43 AM 32.1642 -80.8114 35° Northeast 420 483 39,000  Level Jacksonville Center
Sun 10:55:43 AM 32.2525 -80.7381 35° Northeast 420 483 39,000  Level Jacksonville Center
Sun 10:56:43 AM 32.3514 -80.6572 35° Northeast 420 483 39,000  Level Jacksonville Center
Sun 10:57:43 AM 32.4481 -80.5761 35° Northeast 420 483 39,000  Level Jacksonville Center
Sun 10:58:43 AM 32.5489 -80.4922 35° Northeast 420 483 39,000  Level Jacksonville Center
Sun 10:59:43 AM 32.6597 -80.4003 35° Northeast 428 493 39,000  Level Jacksonville Center
Sun 11:00:43 AM 32.7603 -80.3186 34° Northeast 434 499 39,000  Level Jacksonville Center
Sun 11:01:43 AM 32.8567 -80.2342 36° Northeast 434 499 39,000  Level Jacksonville Center
Sun 11:02:43 AM 32.9614 -80.1469 35° Northeast 441 507 39,000  Level Jacksonville Center
Sun 11:03:43 AM 33.0617 -80.0619 35° Northeast 446 513 39,000  Level Jacksonville Center
Sun 11:04:43 AM 33.1661 -79.9744 35° Northeast 446 513 39,000  Level Jacksonville Center
Sun 11:05:43 AM 33.2664 -79.8892 35° Northeast 446 513 39,000  Level Jacksonville Center
Sun 11:06:43 AM 33.3706 -79.7986 36° Northeast 446 513 39,000  Level Jacksonville Center
Sun 11:07:43 AM 33.4750 -79.7128 34° Northeast 446 513 39,000  Level Jacksonville Center
Sun 11:08:43 AM 33.5769 -79.6244 36° Northeast 446 513 39,000  Level Jacksonville Center
Sun 11:09:43 AM 33.6792 -79.5358 36° Northeast 446 513 39,000  Level Jacksonville Center
Sun 11:10:43 AM 33.7831 -79.4444 36° Northeast 446 513 39,000  Level Jacksonville Center
Sun 11:12:51 AM 33.9944 -79.2611 36° Northeast 449 517 39,000  Level Washington Center
Sun 11:13:51 AM 34.0994 -79.1731 35° Northeast 454 522 39,000  Level Washington Center
Sun 11:14:49 AM 34.2042 -79.0847 35° Northeast 454 522 39,000  Level Washington Center
Sun 11:15:50 AM 34.3069 -78.9961 35° Northeast 461 531 39,000  Level Washington Center
Sun 11:16:50 AM 34.4156 -78.9175 31° Northeast 456 525 39,000  Level Washington Center
Sun 11:17:51 AM 34.5244 -78.8311 33° Northeast 451 519 39,000  Level Washington Center
Sun 11:18:49 AM 34.6222 -78.7644 29° Northeast 451 519 39,000  Level Washington Center
Sun 11:19:50 AM 34.7489 -78.7036 22° Northeast 441 507 39,000  Level Washington Center
Sun 11:20:51 AM 34.8503 -78.6569 21° North 441 507 39,000  Level Washington Center
Sun 11:21:49 AM 34.9644 -78.6003 22° Northeast 441 507 39,000  Level Washington Center
Sun 11:22:51 AM 35.0892 -78.5389 22° Northeast 441 507 39,000  Level Washington Center
Sun 11:23:49 AM 35.2031 -78.4822 22° Northeast 441 507 39,000  Level Washington Center
Sun 11:24:50 AM 35.3192 -78.4253 22° Northeast 441 507 39,000 -198 Level Washington Center
Sun 11:25:50 AM 35.4333 -78.3631 24° Northeast 441 507 38,600 -645 Descending Washington Center
Sun 11:26:51 AM 35.5536 -78.3083 20° North 441 507 37,700 -942 Descending Washington Center
Sun 11:27:51 AM 35.6694 -78.2536 21° North 441 507 36,700 -1,627 Descending Washington Center
Sun 11:28:49 AM 35.7856 -78.1961 22° Northeast 441 507 34,500 -1,563 Descending Washington Center
Sun 11:29:50 AM 35.9017 -78.1383 22° Northeast 441 507 33,600 -934 Descending Washington Center
Sun 11:30:51 AM 36.0217 -78.0781 22° Northeast 441 507 32,600 -942 Descending Washington Center
Sun 11:31:51 AM 36.1397 -78.0200 22° Northeast 447 514 31,700 -814 Descending Washington Center
Sun 11:32:49 AM 36.2619 -77.9594 22° Northeast 454 522 31,000 -857 Descending Washington Center
Sun 11:33:50 AM 36.3800 -77.9011 22° Northeast 454 522 30,000 -984 Descending Washington Center
Sun 11:34:51 AM 36.4917 -77.8397 24° Northeast 449 517 29,000 -857 Descending Washington Center
Sun 11:35:49 AM 36.6056 -77.7861 21° North 437 503 28,300 -864 Descending Washington Center
Sun 11:36:49 AM 36.7150 -77.7269 23° Northeast 437 503 27,300 -645 Descending Washington Center
Sun 11:37:50 AM 36.8158 -77.6883 17° North 432 497 27,000 -149 Descending Washington Center
Sun 11:38:50 AM 36.9292 -77.6472 16° North 425 489 27,000  Level Washington Center
Sun 11:39:51 AM 37.0403 -77.6111 15° North 420 483 27,000  Level Washington Center
Sun 11:40:49 AM 37.1536 -77.5722 15° North 420 483 27,000  Level Washington Center
Sun 11:41:50 AM 37.2775 -77.5286 16° North 420 483 27,000 -99 Level Washington Center
Sun 11:42:50 AM 37.3908 -77.4869 16° North 420 483 26,800 -1,140 Descending Washington Center
Sun 11:43:51 AM 37.4997 -77.4503 15° North 420 483 24,700 -1,884 Descending Washington Center
Sun 11:44:51 AM 37.6047 -77.4111 16° North 415 478 23,000 -864 Descending Washington Center
Sun 11:45:49 AM 37.7117 -77.3742 15° North 401 461 23,000  Level Washington Center
Sun 11:46:49 AM 37.8186 -77.3372 15° North 396 456 23,000  Level Washington Center
Sun 11:47:50 AM 37.9253 -77.3003 15° North 396 456 23,000 -400 Level Washington Center
Sun 11:48:49 AM 38.0303 -77.2606 17° North 396 456 22,200 -1,462 Descending Washington Center
Sun 11:49:49 AM 38.1286 -77.2311 13° North 383 441 20,100 -1,983 Descending Washington Center
Sun 11:50:50 AM 38.2272 -77.1961 16° North 370 426 18,200 -1,934 Descending Washington Center
Sun 11:51:50 AM 38.3214 -77.1583 17° North 360 414 16,200 -1,686 Descending Washington Center
Sun 11:52:51 AM 38.3975 -77.0753 41° Northeast 344 396 14,800 -1,339 Descending Washington Center
Sun 11:53:51 AM 38.4675 -76.9811 46° Northeast 344 396 13,500 -1,475 Descending Washington Center
Sun 11:54:49 AM 38.5331 -76.8947 46° Northeast 344 396 11,900 -1,576 Descending Washington Center
Sun 11:55:49 AM 38.5967 -76.8083 47° Northeast 332 382 10,400 -1,082 Descending Washington Center
Sun 11:56:51 AM 38.6517 -76.7267 49° Northeast 317 365 9,700 -1,165 Descending Washington Center
Sun 11:58:39 AM 38.7500 -76.5833 49° Northeast 284 327 7,100 -1,321 Descending Potomac TRACON
Sun 11:59:39 AM 38.8167 -76.5333 30° Northeast 276 318 6,000 -1,053 Descending Potomac TRACON
Sun 12:00:33 PM 38.8667 -76.5333 360° North 257 296 5,100 -1,050 Descending Potomac TRACON
Sun 12:01:39 PM 38.9500 -76.5667 343° North 254 292 3,900 -1,041 Descending Potomac TRACON
Sun 12:02:34 PM 39.0167 -76.5833 349° North 246 283 3,000 -783 Descending Potomac TRACON
Sun 12:03:34 PM 39.0667 -76.6000 345° North 220 253 2,400 -750 Descending Potomac TRACON
Sun 12:04:34 PM 39.1167 -76.6167 346° North 167 192 1,500 -1,000 Descending Potomac TRACON
Sun 12:05:34 PM 39.1500 -76.6500 322° Northwest 138 159 400 -1,100 Descending Potomac TRACON
Sun 12:07:00 PM 39.1667 -76.6667 339° North  Level FlightAware Approximate

Login

Don't have an account? Register now (free) for customized features, flight alerts, and more!